createdAt,value
2016-12-02T00:00:05.867Z,1006.7
2016-12-02T00:01:05.949Z,1006.7
2016-12-02T00:02:06.226Z,1006.72
2016-12-02T00:03:05.947Z,1006.71
2016-12-02T00:04:05.885Z,1006.72
2016-12-02T00:05:06.095Z,1006.72
2016-12-02T00:06:05.944Z,1006.73
2016-12-02T00:07:06.053Z,1006.76
2016-12-02T00:08:06.147Z,1006.76
2016-12-02T00:09:06.027Z,1006.73
2016-12-02T00:10:06.366Z,1006.72
2016-12-02T00:11:06.250Z,1006.75
2016-12-02T00:12:06.237Z,1006.75
2016-12-02T00:13:06.129Z,1006.69
2016-12-02T00:14:06.390Z,1006.72
2016-12-02T00:15:06.320Z,1006.71
2016-12-02T00:16:06.289Z,1006.72
2016-12-02T00:17:06.268Z,1006.74
2016-12-02T00:18:06.274Z,1006.72
2016-12-02T00:19:06.287Z,1006.74
2016-12-02T00:20:06.548Z,1006.74
2016-12-02T00:21:06.262Z,1006.78
2016-12-02T00:22:06.321Z,1006.74
2016-12-02T00:23:06.258Z,1006.74
2016-12-02T00:24:06.200Z,1006.7
2016-12-02T00:25:06.369Z,1006.74
2016-12-02T00:26:06.411Z,1006.76
2016-12-02T00:27:06.486Z,1006.76
2016-12-02T00:28:06.355Z,1006.71
2016-12-02T00:29:06.362Z,1006.71
2016-12-02T00:30:06.374Z,1006.73
2016-12-02T00:31:06.526Z,1006.73
2016-12-02T00:32:06.501Z,1006.74
2016-12-02T00:33:06.553Z,1006.74
2016-12-02T00:34:06.570Z,1006.71
2016-12-02T00:35:06.514Z,1006.73
2016-12-02T00:36:06.578Z,1006.71
2016-12-02T00:37:06.552Z,1006.75
2016-12-02T00:38:06.530Z,1006.75
2016-12-02T00:39:06.750Z,1006.73
2016-12-02T00:40:06.509Z,1006.69
2016-12-02T00:41:06.981Z,1006.7
2016-12-02T00:42:06.596Z,1006.68
2016-12-02T00:43:06.576Z,1006.68
2016-12-02T00:44:06.999Z,1006.67
2016-12-02T00:45:06.919Z,1006.71
2016-12-02T00:46:06.799Z,1006.63
2016-12-02T00:47:06.891Z,1006.68
2016-12-02T00:48:06.768Z,1006.68
2016-12-02T00:49:06.827Z,1006.71
2016-12-02T00:50:06.760Z,1006.68
2016-12-02T00:51:06.724Z,1006.78
2016-12-02T00:52:06.816Z,1006.67
2016-12-02T00:53:06.769Z,1006.67
2016-12-02T00:54:07.040Z,1006.72
2016-12-02T00:55:07.152Z,1006.68
2016-12-02T00:56:06.953Z,1006.6
2016-12-02T00:57:06.944Z,1006.62
2016-12-02T00:58:06.988Z,1006.58
2016-12-02T00:59:06.946Z,1006.63
2016-12-02T01:00:06.845Z,1006.62
2016-12-02T01:01:06.775Z,1006.58
2016-12-02T01:02:06.897Z,1006.55
2016-12-02T01:03:06.941Z,1006.6
2016-12-02T01:04:06.983Z,1006.58
2016-12-02T01:05:07.056Z,1006.55
2016-12-02T01:06:07.217Z,1006.62
2016-12-02T01:07:06.945Z,1006.59
2016-12-02T01:08:07.489Z,1006.64
2016-12-02T01:09:06.943Z,1006.63
2016-12-02T01:10:07.047Z,1006.58
2016-12-02T01:11:07.067Z,1006.59
2016-12-02T01:12:07.086Z,1006.6
2016-12-02T01:13:07.129Z,1006.58
2016-12-02T01:14:07.197Z,1006.61
2016-12-02T01:15:07.783Z,1006.62
2016-12-02T01:16:07.259Z,1006.6
2016-12-02T01:17:07.289Z,1006.62
2016-12-02T01:18:07.109Z,1006.63
2016-12-02T01:19:07.176Z,1006.62
2016-12-02T01:20:07.155Z,1006.59
2016-12-02T01:21:07.324Z,1006.66
2016-12-02T01:22:07.252Z,1006.67
2016-12-02T01:23:07.309Z,1006.75
2016-12-02T01:24:07.588Z,1006.78
2016-12-02T01:25:07.432Z,1006.76
2016-12-02T01:26:07.451Z,1006.79
2016-12-02T01:27:07.359Z,1006.78
2016-12-02T01:28:07.325Z,1006.78
2016-12-02T01:29:07.350Z,1006.75
2016-12-02T01:30:07.360Z,1006.72
2016-12-02T01:31:07.426Z,1006.66
2016-12-02T01:32:07.303Z,1006.64
2016-12-02T01:33:07.456Z,1006.67
2016-12-02T01:34:07.458Z,1006.63
2016-12-02T01:35:07.460Z,1006.64
2016-12-02T01:36:07.521Z,1006.6
2016-12-02T01:37:07.561Z,1006.57
2016-12-02T01:38:07.427Z,1006.59
2016-12-02T01:39:07.494Z,1006.56
2016-12-02T01:40:07.548Z,1006.62
2016-12-02T01:41:07.508Z,1006.58
2016-12-02T01:42:07.611Z,1006.59
2016-12-02T01:43:07.827Z,1006.59
2016-12-02T01:44:07.660Z,1006.62
2016-12-02T01:45:07.881Z,1006.68
2016-12-02T01:46:07.562Z,1006.6
2016-12-02T01:47:07.607Z,1006.62
2016-12-02T01:48:07.751Z,1006.62
2016-12-02T01:49:07.554Z,1006.63
2016-12-02T01:50:07.696Z,1006.62
2016-12-02T01:51:07.760Z,1006.61
2016-12-02T01:52:07.766Z,1006.6
2016-12-02T01:53:07.865Z,1006.57
2016-12-02T01:54:07.841Z,1006.57
2016-12-02T01:55:07.913Z,1006.53
2016-12-02T01:56:07.845Z,1006.51
2016-12-02T01:57:07.679Z,1006.49
2016-12-02T01:58:07.872Z,1006.47
2016-12-02T01:59:07.873Z,1006.45
2016-12-02T02:00:07.769Z,1006.47
2016-12-02T02:01:07.863Z,1006.49
2016-12-02T02:02:07.907Z,1006.42
2016-12-02T02:03:07.806Z,1006.46
2016-12-02T02:04:08.202Z,1006.48
2016-12-02T02:05:07.843Z,1006.5
2016-12-02T02:06:08.077Z,1006.47
2016-12-02T02:07:07.956Z,1006.44
2016-12-02T02:08:08.154Z,1006.48
2016-12-02T02:09:07.974Z,1006.43
2016-12-02T02:10:08.112Z,1006.41
2016-12-02T02:11:07.983Z,1006.42
2016-12-02T02:12:08.094Z,1006.38
2016-12-02T02:13:08.225Z,1006.44
2016-12-02T02:14:08.415Z,1006.37
2016-12-02T02:15:08.192Z,1006.37
2016-12-02T02:16:08.464Z,1006.29
2016-12-02T02:17:08.495Z,1006.29
2016-12-02T02:18:08.003Z,1006.3
2016-12-02T02:19:08.217Z,1006.25
2016-12-02T02:20:08.399Z,1006.27
2016-12-02T02:21:08.103Z,1006.32
2016-12-02T02:22:08.176Z,1006.27
2016-12-02T02:23:08.178Z,1006.34
2016-12-02T02:24:08.340Z,1006.43
2016-12-02T02:25:08.388Z,1006.42
2016-12-02T02:26:08.320Z,1006.43
2016-12-02T02:27:08.355Z,1006.48
2016-12-02T02:28:08.203Z,1006.42
2016-12-02T02:29:08.323Z,1006.41
2016-12-02T02:30:08.520Z,1006.39
2016-12-02T02:31:08.241Z,1006.42
2016-12-02T02:32:08.401Z,1006.35
2016-12-02T02:33:08.461Z,1006.37
2016-12-02T02:34:08.596Z,1006.34
2016-12-02T02:35:08.727Z,1006.34
2016-12-02T02:36:08.428Z,1006.31
2016-12-02T02:37:08.321Z,1006.28
2016-12-02T02:38:08.353Z,1006.29
2016-12-02T02:39:08.383Z,1006.31
2016-12-02T02:40:08.396Z,1006.32
2016-12-02T02:41:08.683Z,1006.37
2016-12-02T02:42:09.119Z,1006.35
2016-12-02T02:43:08.727Z,1006.35
2016-12-02T02:44:08.813Z,1006.39
2016-12-02T02:45:08.664Z,1006.35
2016-12-02T02:46:08.571Z,1006.35
2016-12-02T02:47:08.770Z,1006.37
2016-12-02T02:48:08.681Z,1006.32
2016-12-02T02:49:08.559Z,1006.31
2016-12-02T02:50:08.692Z,1006.28
2016-12-02T02:51:08.675Z,1006.33
2016-12-02T02:52:08.832Z,1006.33
2016-12-02T02:53:08.693Z,1006.38
2016-12-02T02:54:08.906Z,1006.35
2016-12-02T02:55:09.104Z,1006.34
2016-12-02T02:56:08.824Z,1006.33
2016-12-02T02:57:08.883Z,1006.36
2016-12-02T02:58:09.008Z,1006.35
2016-12-02T02:59:08.902Z,1006.42
2016-12-02T03:00:08.984Z,1006.4
2016-12-02T03:01:08.829Z,1006.48
2016-12-02T03:02:08.807Z,1006.46
2016-12-02T03:03:08.818Z,1006.4
2016-12-02T03:04:08.779Z,1006.39
2016-12-02T03:05:08.898Z,1006.39
2016-12-02T03:06:08.927Z,1006.38
2016-12-02T03:07:08.926Z,1006.41
2016-12-02T03:08:09.138Z,1006.46
2016-12-02T03:09:08.770Z,1006.42
2016-12-02T03:10:09.095Z,1006.39
2016-12-02T03:11:09.031Z,1006.44
2016-12-02T03:12:08.892Z,1006.37
2016-12-02T03:13:08.970Z,1006.32
2016-12-02T03:14:09.115Z,1006.36
2016-12-02T03:15:09.077Z,1006.34
2016-12-02T03:16:09.011Z,1006.32
2016-12-02T03:17:09.044Z,1006.3
2016-12-02T03:18:08.972Z,1006.32
2016-12-02T03:19:09.048Z,1006.34
2016-12-02T03:20:09.183Z,1006.3
2016-12-02T03:21:09.183Z,1006.25
2016-12-02T03:22:09.175Z,1006.3
2016-12-02T03:23:09.178Z,1006.31
2016-12-02T03:24:09.543Z,1006.27
2016-12-02T03:25:09.134Z,1006.25
2016-12-02T03:26:09.147Z,1006.29
2016-12-02T03:27:09.123Z,1006.28
2016-12-02T03:28:09.136Z,1006.37
2016-12-02T03:29:09.306Z,1006.35
2016-12-02T03:30:09.255Z,1006.38
2016-12-02T03:31:09.540Z,1006.39
2016-12-02T03:32:09.270Z,1006.4
2016-12-02T03:33:09.407Z,1006.38
2016-12-02T03:34:09.654Z,1006.32
2016-12-02T03:35:09.330Z,1006.37
2016-12-02T03:36:09.342Z,1006.38
2016-12-02T03:37:09.406Z,1006.37
2016-12-02T03:38:09.407Z,1006.36
2016-12-02T03:39:09.319Z,1006.42
2016-12-02T03:40:09.411Z,1006.4
2016-12-02T03:41:09.523Z,1006.34
2016-12-02T03:42:09.317Z,1006.34
2016-12-02T03:43:09.369Z,1006.37
2016-12-02T03:44:09.402Z,1006.38
2016-12-02T03:45:09.541Z,1006.35
2016-12-02T03:46:09.506Z,1006.35
2016-12-02T03:47:09.570Z,1006.33
2016-12-02T03:48:09.457Z,1006.35
2016-12-02T03:49:09.501Z,1006.3
2016-12-02T03:50:09.489Z,1006.29
2016-12-02T03:51:09.547Z,1006.35
2016-12-02T03:52:09.662Z,1006.28
2016-12-02T03:53:09.899Z,1006.29
2016-12-02T03:54:09.829Z,1006.25
2016-12-02T03:55:09.701Z,1006.28
2016-12-02T03:56:09.853Z,1006.29
2016-12-02T03:57:09.577Z,1006.26
2016-12-02T03:58:09.787Z,1006.32
2016-12-02T03:59:09.804Z,1006.3
2016-12-02T04:00:09.619Z,1006.29
2016-12-02T04:01:10.144Z,1006.32
2016-12-02T04:02:09.883Z,1006.34
2016-12-02T04:03:09.961Z,1006.33
2016-12-02T04:04:09.770Z,1006.36
2016-12-02T04:05:09.904Z,1006.37
2016-12-02T04:06:09.840Z,1006.39
2016-12-02T04:07:09.864Z,1006.39
2016-12-02T04:08:10.100Z,1006.4
2016-12-02T04:09:09.849Z,1006.41
2016-12-02T04:10:10.092Z,1006.4
2016-12-02T04:11:09.845Z,1006.36
2016-12-02T04:12:09.836Z,1006.35
2016-12-02T04:13:10.180Z,1006.47
2016-12-02T04:14:09.866Z,1006.42
2016-12-02T04:15:09.814Z,1006.43
2016-12-02T04:16:10.206Z,1006.4
2016-12-02T04:17:09.877Z,1006.38
2016-12-02T04:18:09.967Z,1006.41
2016-12-02T04:19:10.070Z,1006.44
2016-12-02T04:20:09.989Z,1006.41
2016-12-02T04:21:09.967Z,1006.37
2016-12-02T04:22:09.902Z,1006.42
2016-12-02T04:23:09.991Z,1006.39
2016-12-02T04:24:10.096Z,1006.39
2016-12-02T04:25:10.510Z,1006.42
2016-12-02T04:26:10.421Z,1006.39
2016-12-02T04:27:10.057Z,1006.42
2016-12-02T04:28:10.272Z,1006.41
2016-12-02T04:29:10.326Z,1006.44
2016-12-02T04:30:10.238Z,1006.36
2016-12-02T04:31:10.308Z,1006.47
2016-12-02T04:32:10.242Z,1006.45
2016-12-02T04:33:10.280Z,1006.41
2016-12-02T04:34:10.208Z,1006.44
2016-12-02T04:35:10.178Z,1006.45
2016-12-02T04:36:10.176Z,1006.39
2016-12-02T04:37:10.265Z,1006.37
2016-12-02T04:38:10.571Z,1006.37
2016-12-02T04:39:10.170Z,1006.35
2016-12-02T04:40:10.339Z,1006.43
2016-12-02T04:41:10.356Z,1006.38
2016-12-02T04:42:10.535Z,1006.4
2016-12-02T04:43:10.488Z,1006.48
2016-12-02T04:44:10.700Z,1006.49
2016-12-02T04:45:10.543Z,1006.5
2016-12-02T04:46:10.308Z,1006.52
2016-12-02T04:47:10.663Z,1006.55
2016-12-02T04:48:10.484Z,1006.59
2016-12-02T04:49:10.752Z,1006.59
2016-12-02T04:50:10.621Z,1006.59
2016-12-02T04:51:10.947Z,1006.6
2016-12-02T04:52:10.529Z,1006.59
2016-12-02T04:53:10.453Z,1006.62
2016-12-02T04:54:11.036Z,1006.53
2016-12-02T04:55:11.002Z,1006.59
2016-12-02T04:56:10.606Z,1006.58
2016-12-02T04:57:10.771Z,1006.59
2016-12-02T04:58:10.780Z,1006.57
2016-12-02T04:59:10.646Z,1006.56
2016-12-02T05:00:10.596Z,1006.61
2016-12-02T05:01:10.753Z,1006.57
2016-12-02T05:02:11.129Z,1006.56
2016-12-02T05:03:10.588Z,1006.59
2016-12-02T05:04:10.707Z,1006.53
2016-12-02T05:05:10.755Z,1006.52
2016-12-02T05:06:10.669Z,1006.6
2016-12-02T05:07:10.688Z,1006.56
2016-12-02T05:08:10.798Z,1006.6
2016-12-02T05:09:10.766Z,1006.56
2016-12-02T05:10:11.011Z,1006.57
2016-12-02T05:11:10.801Z,1006.59
2016-12-02T05:12:11.201Z,1006.62
2016-12-02T05:13:10.942Z,1006.58
2016-12-02T05:14:11.180Z,1006.59
2016-12-02T05:15:10.927Z,1006.63
2016-12-02T05:16:11.492Z,1006.64
2016-12-02T05:17:11.264Z,1006.6
2016-12-02T05:18:11.050Z,1006.6
2016-12-02T05:19:11.112Z,1006.58
2016-12-02T05:20:10.803Z,1006.59
2016-12-02T05:21:11.165Z,1006.59
2016-12-02T05:22:10.946Z,1006.6
2016-12-02T05:23:11.532Z,1006.57
2016-12-02T05:24:11.168Z,1006.57
2016-12-02T05:25:11.341Z,1006.61
2016-12-02T05:26:11.235Z,1006.62
2016-12-02T05:27:11.143Z,1006.63
2016-12-02T05:28:11.344Z,1006.67
2016-12-02T05:29:11.296Z,1006.64
2016-12-02T05:30:11.077Z,1006.7
2016-12-02T05:31:11.341Z,1006.7
2016-12-02T05:32:11.107Z,1006.67
2016-12-02T05:33:11.498Z,1006.71
2016-12-02T05:34:11.481Z,1006.69
2016-12-02T05:35:11.344Z,1006.74
2016-12-02T05:36:11.261Z,1006.79
2016-12-02T05:37:11.504Z,1006.78
2016-12-02T05:38:11.240Z,1006.72
2016-12-02T05:39:11.220Z,1006.81
2016-12-02T05:40:11.646Z,1006.85
2016-12-02T05:41:11.681Z,1006.89
2016-12-02T05:42:11.472Z,1006.84
2016-12-02T05:43:11.483Z,1006.95
2016-12-02T05:44:11.303Z,1006.88
2016-12-02T05:45:11.379Z,1006.82
2016-12-02T05:46:11.643Z,1006.89
2016-12-02T05:47:11.327Z,1006.88
2016-12-02T05:48:11.747Z,1006.94
2016-12-02T05:49:11.474Z,1006.91
2016-12-02T05:50:11.429Z,1006.92
2016-12-02T05:51:11.661Z,1007
2016-12-02T05:52:11.392Z,1006.95
2016-12-02T05:53:11.624Z,1006.96
2016-12-02T05:54:11.609Z,1006.87
2016-12-02T05:55:11.703Z,1006.91
2016-12-02T05:56:11.630Z,1006.91
2016-12-02T05:57:11.737Z,1006.95
2016-12-02T05:58:11.573Z,1007.06
2016-12-02T05:59:11.687Z,1006.99
2016-12-02T06:00:11.707Z,1006.95
2016-12-02T06:01:11.915Z,1007
2016-12-02T06:02:11.622Z,1006.96
2016-12-02T06:03:12.119Z,1007
2016-12-02T06:04:11.876Z,1007.05
2016-12-02T06:05:11.735Z,1006.97
2016-12-02T06:06:12.013Z,1007.05
2016-12-02T06:07:12.234Z,1006.98
2016-12-02T06:08:11.670Z,1007.06
2016-12-02T06:09:11.592Z,1007.04
2016-12-02T06:10:11.749Z,1007.07
2016-12-02T06:11:12.003Z,1007.12
2016-12-02T06:12:11.762Z,1007.04
2016-12-02T06:13:12.083Z,1007
2016-12-02T06:14:11.751Z,1007.01
2016-12-02T06:15:11.905Z,1007.04
2016-12-02T06:16:12.162Z,1007.06
2016-12-02T06:17:12.104Z,1007.02
2016-12-02T06:18:11.851Z,1006.99
2016-12-02T06:19:12.538Z,1007.03
2016-12-02T06:20:11.847Z,1007.07
2016-12-02T06:21:11.934Z,1007.05
2016-12-02T06:22:12.104Z,1007.1
2016-12-02T06:23:11.992Z,1007.1
2016-12-02T06:24:12.063Z,1007.12
2016-12-02T06:25:11.976Z,1007.14
2016-12-02T06:26:12.125Z,1007.17
2016-12-02T06:27:12.064Z,1007.2
2016-12-02T06:28:12.147Z,1007.15
2016-12-02T06:29:12.042Z,1007.15
2016-12-02T06:30:12.294Z,1007.2
2016-12-02T06:31:12.092Z,1007.18
2016-12-02T06:32:12.510Z,1007.23
2016-12-02T06:33:12.101Z,1007.29
2016-12-02T06:34:12.331Z,1007.18
2016-12-02T06:35:12.340Z,1007.3
2016-12-02T06:36:12.170Z,1007.22
2016-12-02T06:38:12.499Z,1007.24
2016-12-02T06:41:12.103Z,1007.3
2016-12-02T06:42:13.814Z,1007.39
2016-12-02T06:43:12.392Z,1007.34
2016-12-02T06:44:13.186Z,1007.39
2016-12-02T06:45:12.929Z,1007.32
2016-12-02T06:46:13.359Z,1007.24
2016-12-02T06:47:13.415Z,1007.26
2016-12-02T06:48:13.122Z,1007.35
2016-12-02T06:49:13.049Z,1007.36
2016-12-02T06:50:14.811Z,1007.43
2016-12-02T06:51:12.924Z,1007.49
2016-12-02T06:52:13.398Z,1007.48
2016-12-02T06:53:13.178Z,1007.49
2016-12-02T06:54:12.437Z,1007.52
2016-12-02T06:55:13.273Z,1007.47
2016-12-02T06:56:12.397Z,1007.47
2016-12-02T06:57:12.534Z,1007.49
2016-12-02T06:58:12.350Z,1007.49
2016-12-02T06:59:12.468Z,1007.56
2016-12-02T07:00:12.432Z,1007.59
2016-12-02T07:01:12.678Z,1007.67
2016-12-02T07:02:12.481Z,1007.7
2016-12-02T07:03:13.177Z,1007.72
2016-12-02T07:04:12.548Z,1007.77
2016-12-02T07:05:12.659Z,1007.8
2016-12-02T07:06:12.930Z,1007.73
2016-12-02T07:07:12.759Z,1007.72
2016-12-02T07:08:12.735Z,1007.86
2016-12-02T07:09:12.667Z,1007.86
2016-12-02T07:10:12.706Z,1007.92
2016-12-02T07:11:12.742Z,1007.96
2016-12-02T07:12:13.276Z,1008
2016-12-02T07:13:12.578Z,1008.04
2016-12-02T07:14:12.719Z,1008.03
2016-12-02T07:15:13.522Z,1008.06
2016-12-02T07:16:12.943Z,1008.01
2016-12-02T07:17:13.192Z,1007.99
2016-12-02T07:18:12.739Z,1008.1
2016-12-02T07:19:13.657Z,1008.11
2016-12-02T07:20:12.980Z,1008.11
2016-12-02T07:21:13.475Z,1008.14
2016-12-02T07:22:13.609Z,1008.12
2016-12-02T07:23:12.931Z,1008.18
2016-12-02T07:24:13.135Z,1008.23
2016-12-02T07:25:12.963Z,1008.21
2016-12-02T07:26:13.338Z,1008.27
2016-12-02T07:27:12.937Z,1008.31
2016-12-02T07:28:13.381Z,1008.33
2016-12-02T07:29:13.687Z,1008.32
2016-12-02T07:30:13.339Z,1008.37
2016-12-02T07:31:13.039Z,1008.42
2016-12-02T07:32:13.671Z,1008.35
2016-12-02T07:33:13.488Z,1008.4
2016-12-02T07:34:13.085Z,1008.42
2016-12-02T07:35:13.253Z,1008.38
2016-12-02T07:36:13.288Z,1008.38
2016-12-02T07:37:13.252Z,1008.43
2016-12-02T07:38:13.322Z,1008.44
2016-12-02T07:39:13.480Z,1008.46
2016-12-02T07:40:13.267Z,1008.49
2016-12-02T07:41:13.332Z,1008.57
2016-12-02T07:42:13.323Z,1008.59
2016-12-02T07:43:13.524Z,1008.59
2016-12-02T07:44:13.173Z,1008.63
2016-12-02T07:45:13.330Z,1008.66
2016-12-02T07:46:13.585Z,1008.67
2016-12-02T07:47:13.175Z,1008.64
2016-12-02T07:48:13.273Z,1008.7
2016-12-02T07:49:13.792Z,1008.78
2016-12-02T07:50:13.504Z,1008.81
2016-12-02T07:51:13.588Z,1008.8
2016-12-02T07:52:13.717Z,1008.87
2016-12-02T07:53:13.848Z,1008.87
2016-12-02T07:54:13.888Z,1008.89
2016-12-02T07:55:13.702Z,1008.86
2016-12-02T07:56:13.472Z,1008.96
2016-12-02T07:57:13.646Z,1008.98
2016-12-02T07:58:13.445Z,1009.02
2016-12-02T07:59:13.454Z,1009.08
2016-12-02T08:00:13.439Z,1009.14
2016-12-02T08:01:13.978Z,1009.14
2016-12-02T08:02:13.573Z,1009.13
2016-12-02T08:03:13.553Z,1009.2
2016-12-02T08:04:13.485Z,1009.21
2016-12-02T08:05:13.526Z,1009.21
2016-12-02T08:06:13.714Z,1009.26
2016-12-02T08:07:13.513Z,1009.3
2016-12-02T08:08:13.717Z,1009.25
2016-12-02T08:09:14.035Z,1009.33
2016-12-02T08:10:13.516Z,1009.29
2016-12-02T08:11:13.620Z,1009.28
2016-12-02T08:12:13.514Z,1009.31
2016-12-02T08:13:13.571Z,1009.35
2016-12-02T08:14:13.654Z,1009.41
2016-12-02T08:15:13.628Z,1009.35
2016-12-02T08:16:13.588Z,1009.4
2016-12-02T08:17:13.584Z,1009.46
2016-12-02T08:18:13.606Z,1009.46
2016-12-02T08:19:13.589Z,1009.41
2016-12-02T08:20:14.061Z,1009.44
2016-12-02T08:21:13.999Z,1009.47
2016-12-02T08:22:13.631Z,1009.45
2016-12-02T08:23:13.919Z,1009.44
2016-12-02T08:24:13.999Z,1009.44
2016-12-02T08:25:13.824Z,1009.52
2016-12-02T08:26:13.879Z,1009.56
2016-12-02T08:27:13.935Z,1009.58
2016-12-02T08:28:13.879Z,1009.58
2016-12-02T08:29:13.856Z,1009.56
2016-12-02T08:30:14.307Z,1009.56
2016-12-02T08:31:13.920Z,1009.59
2016-12-02T08:32:14.742Z,1009.63
2016-12-02T08:33:13.964Z,1009.63
2016-12-02T08:34:13.843Z,1009.65
2016-12-02T08:35:14.164Z,1009.64
2016-12-02T08:36:13.936Z,1009.64
2016-12-02T08:37:13.910Z,1009.68
2016-12-02T08:38:14.329Z,1009.71
2016-12-02T08:39:13.930Z,1009.72
2016-12-02T08:40:14.105Z,1009.74
2016-12-02T08:41:14.198Z,1009.78
2016-12-02T08:42:14.031Z,1009.78
2016-12-02T08:43:14.202Z,1009.75
2016-12-02T08:44:14.178Z,1009.75
2016-12-02T08:45:14.095Z,1009.77
2016-12-02T08:46:14.400Z,1009.74
2016-12-02T08:47:14.337Z,1009.77
2016-12-02T08:48:14.079Z,1009.8
2016-12-02T08:49:14.153Z,1009.77
2016-12-02T08:50:14.105Z,1009.81
2016-12-02T08:51:14.594Z,1009.87
2016-12-02T08:52:14.319Z,1009.85
2016-12-02T08:53:14.277Z,1009.86
2016-12-02T08:54:14.192Z,1009.84
2016-12-02T08:55:14.136Z,1009.84
2016-12-02T08:56:14.285Z,1009.86
2016-12-02T08:57:14.571Z,1009.91
2016-12-02T08:58:14.260Z,1009.92
2016-12-02T08:59:14.430Z,1009.88
2016-12-02T09:00:14.260Z,1009.91
2016-12-02T09:01:14.609Z,1009.94
2016-12-02T09:02:14.366Z,1009.93
2016-12-02T09:03:14.262Z,1009.96
2016-12-02T09:04:14.358Z,1009.96
2016-12-02T09:05:14.590Z,1009.99
2016-12-02T09:06:14.691Z,1010
2016-12-02T09:07:14.475Z,1010.01
2016-12-02T09:08:14.501Z,1010.08
2016-12-02T09:09:14.950Z,1010.05
2016-12-02T09:10:14.426Z,1010.03
2016-12-02T09:11:14.702Z,1010.1
2016-12-02T09:12:14.455Z,1010.12
2016-12-02T09:13:14.459Z,1010.13
2016-12-02T09:14:14.781Z,1010.15
2016-12-02T09:15:14.646Z,1010.16
2016-12-02T09:16:14.810Z,1010.16
2016-12-02T09:17:14.729Z,1010.17
2016-12-02T09:18:14.607Z,1010.18
2016-12-02T09:19:14.714Z,1010.26
2016-12-02T09:20:14.570Z,1010.26
2016-12-02T09:21:14.913Z,1010.31
2016-12-02T09:22:15.304Z,1010.34
2016-12-02T09:23:14.782Z,1010.35
2016-12-02T09:24:14.853Z,1010.38
2016-12-02T09:25:14.734Z,1010.38
2016-12-02T09:26:14.905Z,1010.42
2016-12-02T09:27:14.881Z,1010.35
2016-12-02T09:28:14.872Z,1010.4
2016-12-02T09:29:14.946Z,1010.43
2016-12-02T09:30:14.919Z,1010.42
2016-12-02T09:31:15.255Z,1010.45
2016-12-02T09:32:15.269Z,1010.42
2016-12-02T09:33:15.694Z,1010.46
2016-12-02T09:34:14.837Z,1010.45
2016-12-02T09:35:14.776Z,1010.49
2016-12-02T09:36:15.021Z,1010.48
2016-12-02T09:37:15.047Z,1010.51
2016-12-02T09:38:15.041Z,1010.51
2016-12-02T09:39:14.875Z,1010.49
2016-12-02T09:40:14.896Z,1010.53
2016-12-02T09:41:15.007Z,1010.54
2016-12-02T09:42:15.038Z,1010.47
2016-12-02T09:43:15.156Z,1010.48
2016-12-02T09:44:15.643Z,1010.46
2016-12-02T09:45:15.110Z,1010.48
2016-12-02T09:46:15.119Z,1010.44
2016-12-02T09:47:15.134Z,1010.43
2016-12-02T09:48:15.124Z,1010.5
2016-12-02T09:49:15.114Z,1010.49
2016-12-02T09:50:15.093Z,1010.51
2016-12-02T09:51:15.185Z,1010.5
2016-12-02T09:52:15.141Z,1010.55
2016-12-02T09:53:15.071Z,1010.5
2016-12-02T09:54:15.223Z,1010.53
2016-12-02T09:55:15.382Z,1010.51
2016-12-02T09:56:15.209Z,1010.54
2016-12-02T09:57:15.217Z,1010.57
2016-12-02T09:58:15.374Z,1010.52
2016-12-02T09:59:15.503Z,1010.5
2016-12-02T10:00:15.588Z,1010.55
2016-12-02T10:01:15.308Z,1010.51
2016-12-02T10:02:15.331Z,1010.54
2016-12-02T10:03:15.284Z,1010.54
2016-12-02T10:04:15.353Z,1010.55
2016-12-02T10:05:15.441Z,1010.58
2016-12-02T10:06:15.492Z,1010.61
2016-12-02T10:07:15.651Z,1010.61
2016-12-02T10:08:15.450Z,1010.64
2016-12-02T10:09:15.505Z,1010.65
2016-12-02T10:10:15.809Z,1010.62
2016-12-02T10:11:15.425Z,1010.64
2016-12-02T10:12:15.501Z,1010.62
2016-12-02T10:13:15.453Z,1010.6
2016-12-02T10:14:15.703Z,1010.6
2016-12-02T10:15:15.711Z,1010.64
2016-12-02T10:16:15.819Z,1010.67
2016-12-02T10:17:15.708Z,1010.63
2016-12-02T10:18:15.634Z,1010.67
2016-12-02T10:19:15.736Z,1010.66
2016-12-02T10:20:15.579Z,1010.67
2016-12-02T10:21:15.725Z,1010.71
2016-12-02T10:22:15.757Z,1010.73
2016-12-02T10:23:15.697Z,1010.74
2016-12-02T10:24:15.825Z,1010.78
2016-12-02T10:25:16.125Z,1010.82
2016-12-02T10:26:16.124Z,1010.8
2016-12-02T10:27:16.187Z,1010.8
2016-12-02T10:28:15.783Z,1010.76
2016-12-02T10:29:15.853Z,1010.84
2016-12-02T10:30:15.839Z,1010.82
2016-12-02T10:31:16.115Z,1010.81
2016-12-02T10:32:15.840Z,1010.81
2016-12-02T10:33:15.990Z,1010.78
2016-12-02T10:34:16.150Z,1010.75
2016-12-02T10:35:16.103Z,1010.8
2016-12-02T10:36:15.970Z,1010.76
2016-12-02T10:37:16.258Z,1010.8
2016-12-02T10:38:15.990Z,1010.85
2016-12-02T10:39:16.379Z,1010.89
2016-12-02T10:40:15.966Z,1010.84
2016-12-02T10:41:16.107Z,1010.89
2016-12-02T10:42:16.150Z,1010.88
2016-12-02T10:43:16.115Z,1010.83
2016-12-02T10:44:16.214Z,1010.84
2016-12-02T10:45:16.120Z,1010.85
2016-12-02T10:46:16.142Z,1010.9
2016-12-02T10:47:16.486Z,1010.9
2016-12-02T10:48:16.171Z,1010.87
2016-12-02T10:49:16.098Z,1010.82
2016-12-02T10:50:16.157Z,1010.83
2016-12-02T10:51:16.251Z,1010.88
2016-12-02T10:52:16.112Z,1010.88
2016-12-02T10:53:16.121Z,1010.86
2016-12-02T10:54:16.387Z,1010.84
2016-12-02T10:55:16.613Z,1010.88
2016-12-02T10:56:16.300Z,1010.86
2016-12-02T10:57:16.504Z,1010.87
2016-12-02T10:58:16.412Z,1010.84
2016-12-02T10:59:17.314Z,1010.85
2016-12-02T11:00:16.816Z,1010.82
2016-12-02T11:01:16.475Z,1010.87
2016-12-02T11:02:16.913Z,1010.82
2016-12-02T11:03:16.888Z,1010.86
2016-12-02T11:04:16.543Z,1010.85
2016-12-02T11:05:16.453Z,1010.87
2016-12-02T11:06:16.500Z,1010.87
2016-12-02T11:07:16.608Z,1010.85
2016-12-02T11:08:16.504Z,1010.87
2016-12-02T11:09:16.591Z,1010.91
2016-12-02T11:10:16.483Z,1010.88
2016-12-02T11:11:16.866Z,1010.86
2016-12-02T11:12:16.467Z,1010.86
2016-12-02T11:13:16.844Z,1010.91
2016-12-02T11:14:16.701Z,1010.93
2016-12-02T11:15:16.731Z,1010.94
2016-12-02T11:16:16.838Z,1010.96
2016-12-02T11:17:16.768Z,1011
2016-12-02T11:18:16.729Z,1011.02
2016-12-02T11:19:16.755Z,1011.02
2016-12-02T11:20:16.906Z,1011
2016-12-02T11:21:16.863Z,1011.04
2016-12-02T11:22:16.680Z,1011.04
2016-12-02T11:23:16.973Z,1011.04
2016-12-02T11:24:16.849Z,1010.98
2016-12-02T11:25:16.745Z,1011.01
2016-12-02T11:26:17.246Z,1011.08
2016-12-02T11:27:16.806Z,1011.01
2016-12-02T11:28:17.064Z,1011
2016-12-02T11:29:16.809Z,1011.04
2016-12-02T11:30:16.944Z,1011.06
2016-12-02T11:31:16.906Z,1011.02
2016-12-02T11:32:16.799Z,1011.04
2016-12-02T11:33:17.020Z,1011.05
2016-12-02T11:34:17.075Z,1011.05
2016-12-02T11:35:17.183Z,1011.07
2016-12-02T11:36:16.894Z,1011.06
2016-12-02T11:37:17.322Z,1011.06
2016-12-02T11:38:17.120Z,1011.08
2016-12-02T11:39:17.531Z,1011.09
2016-12-02T11:40:17.159Z,1011.1
2016-12-02T11:41:17.281Z,1011.11
2016-12-02T11:42:17.283Z,1011.12
2016-12-02T11:43:17.162Z,1011.18
2016-12-02T11:44:17.156Z,1011.13
2016-12-02T11:45:17.523Z,1011.14
2016-12-02T11:46:17.477Z,1011.15
2016-12-02T11:47:17.254Z,1011.13
2016-12-02T11:48:17.060Z,1011.16
2016-12-02T11:49:17.540Z,1011.14
2016-12-02T11:50:17.672Z,1011.16
2016-12-02T11:51:17.231Z,1011.18
2016-12-02T11:52:17.334Z,1011.19
2016-12-02T11:53:17.361Z,1011.11
2016-12-02T11:54:17.340Z,1011.16
2016-12-02T11:55:17.518Z,1011.12
2016-12-02T11:56:17.519Z,1011.1
2016-12-02T11:57:17.572Z,1011.13
2016-12-02T11:58:17.761Z,1011.16
2016-12-02T11:59:17.528Z,1011.13
2016-12-02T12:00:17.474Z,1011.08
2016-12-02T12:01:17.688Z,1011.1
2016-12-02T12:02:17.475Z,1011.13
2016-12-02T12:03:17.574Z,1011.15
2016-12-02T12:04:17.544Z,1011.16
2016-12-02T12:05:17.713Z,1011.14
2016-12-02T12:06:17.840Z,1011.17
2016-12-02T12:07:18.001Z,1011.13
2016-12-02T12:08:17.740Z,1011.1
2016-12-02T12:09:17.835Z,1011.12
2016-12-02T12:10:17.614Z,1011.12
2016-12-02T12:11:17.731Z,1011.12